Ipoh, Malaysia
Current Conditions -  °F | °C
As of 4:00 PM on Friday 19 Dec 2014 (Local Time) from WMKI Reporting Station
Rain Showers Rain Showers  
Wind Chill: 88°   Ceiling: 28000
Heat Index: 100°   Visibility: 6mi
Dew Point: 77°   Wind: 6mph
Humidity: 70%   Direction: 200°SSW
Pressure: 29.77"   Gusts: NA
Location:  4.6°N, 101.07°E
Report Text: WMKI 190800Z 20005KT 9999 -SHRA FEW017CB SCT020 BKN280 31/25 Q1008
Loading
Personal Weather Stations






























Interactive Weather Map New forecast layout! Learn more

10-Day Weather Forecast

Advertisements
Track Severe Weather on mobile